Latest Weather Observations for Willis Island

IDQ60801

Issued at 3:32 pm EST Sunday 26 February 2017 (issued every 30 minutes, with the page automatically refreshed every 10 minutes)

About weather observations | Map of weather stations | Latest weather observations for QLD | Other Formats
Station Details ID: 200283 Name: WILLIS ISLAND Lat: -16.29 Lon: 149.97 Height: 9.29 m
Data from the previous 72 hours. | See also: Recent months at Willis Island
Date/Time
EST
Temp
°C
App
Temp
°C
Dew
Point
°C
Rel
Hum
%
Delta-T
°C
Wind Press
QNH
hPa
Press
MSL
hPa
Rain since
9am
mm
Dir  Spd
km/h
Gust
km/h
Spd
kts
Gust
kts
26/03:00pm 30.7 32.5 24.9 71 4.1 SE 24 32 13 17 1006.9 1006.8 0.0
26/02:30pm 31.4 33.0 23.9 64 5.2 SE 22 28 12 15 1006.9 1006.8 0.0
26/02:00pm 31.3 32.9 24.5 67 4.8 SE 24 28 13 15 1007.2 1007.1 0.0
26/01:30pm 31.0 32.2 23.2 63 5.4 SE 22 24 12 13 1007.4 1007.3 0.0
26/01:00pm 31.3 32.0 22.9 61 5.8 SE 24 28 13 15 1007.8 1007.7 0.0
26/12:30pm 31.4 32.7 23.3 62 5.6 SE 22 28 12 15 1008.2 1008.1 0.0
26/12:00pm 31.5 32.6 23.6 63 5.5 SE 24 28 13 15 1008.5 1008.4 0.0
26/11:30am 31.5 33.0 23.7 63 5.4 SE 22 26 12 14 1008.7 1008.6 0.0
26/11:00am 31.0 31.9 23.3 63 5.3 SE 24 28 13 15 1008.9 1008.8 0.0
26/10:30am 30.8 31.8 22.8 62 5.5 SE 22 26 12 14 1009.1 1009.0 0.0
26/10:00am 30.8 31.6 23.1 63 5.3 ESE 24 28 13 15 1009.4 1009.3 0.0
26/09:30am 30.6 31.7 23.0 64 5.2 ESE 22 26 12 14 1009.6 1009.5 0.0
26/09:00am 30.2 30.7 22.6 63 5.2 ESE 24 30 13 16 1009.6 1009.5 0.0
26/08:30am 29.7 29.8 22.5 65 4.9 ESE 26 32 14 17 1009.3 1009.2 0.0
26/08:00am 29.7 29.9 22.8 66 4.7 ESE 26 32 14 17 1009.2 1009.1 0.0
26/07:30am 29.2 29.7 22.6 67 4.5 ESE 24 28 13 15 1008.9 1008.8 0.0
26/07:00am 28.6 28.9 22.2 68 4.3 ESE 24 28 13 15 1008.3 1008.2 0.0
26/06:30am 28.2 28.0 22.0 69 4.2 ESE 26 32 14 17 1007.8 1007.7 0.0
26/06:00am 27.9 27.3 22.0 70 4.0 ESE 28 32 15 17 1007.6 1007.5 0.0
26/05:30am 27.9 27.6 22.6 73 3.6 ESE 28 32 15 17 1007.4 1007.3 0.0
26/05:00am 27.9 27.6 22.6 73 3.6 ESE 28 32 15 17 1007.3 1007.2 0.0
26/04:30am 27.8 27.9 22.6 73 3.5 SE 26 30 14 16 1007.2 1007.1 0.0
26/04:00am 27.7 27.8 22.5 73 3.5 ESE 26 30 14 16 1007.2 1007.1 0.0
26/03:30am 27.7 27.2 22.2 72 3.7 ESE 28 33 15 18 1007.1 1007.0 0.0
26/03:00am 27.8 27.5 22.6 73 3.5 SE 28 33 15 18 1007.2 1007.1 0.0
26/02:30am 27.8 27.2 22.0 70 3.9 ESE 28 30 15 16 1007.4 1007.3 0.0
26/02:00am 28.0 27.4 21.9 69 4.1 ESE 28 32 15 17 1007.8 1007.7 0.0
26/01:30am 27.9 28.1 23.4 76 3.1 ESE 28 32 15 17 1007.9 1007.8 0.0
26/01:00am 28.2 27.8 23.1 74 3.5 ESE 30 35 16 19 1008.3 1008.2 0.0
26/12:30am 27.8 28.8 22.8 74 3.4 SSE 22 32 12 17 1008.6 1008.5 0.0
26/12:00am 28.1 28.1 23.1 74 3.4 ESE 28 33 15 18 1008.9 1008.8 0.0
 
Date/Time
EST
Temp
°C
App
Temp
°C
Dew
Point
°C
Rel
Hum
%
Delta-T
°C
Wind Press
QNH
hPa
Press
MSL
hPa
Rain since
9am
mm
Dir  Spd
km/h
Gust
km/h
Spd
kts
Gust
kts
25/11:30pm 28.2 27.7 22.9 73 3.6 ESE 30 35 16 19 1009.4 1009.3 0.0
25/11:00pm 28.4 27.5 22.8 71 3.8 SE 32 35 17 19 1009.7 1009.6 0.0
25/10:30pm 28.3 27.4 22.9 72 3.7 ESE 32 35 17 19 1009.9 1009.8 0.0
25/10:00pm 28.3 27.2 22.9 72 3.7 SE 33 37 18 20 1009.7 1009.6 0.0
25/09:30pm 28.5 27.2 23.1 72 3.7 SE 35 39 19 21 1009.7 1009.6 0.0
25/09:00pm 28.5 27.6 23.2 73 3.6 SE 33 39 18 21 1009.5 1009.4 0.0
25/08:30pm 28.6 27.5 22.4 69 4.2 SE 32 35 17 19 1009.2 1009.1 0.0
25/08:00pm 28.7 28.2 23.6 74 3.5 SE 32 39 17 21 1008.9 1008.8 0.0
25/07:30pm 28.6 27.6 22.7 70 4.0 SE 32 37 17 20 1008.6 1008.5 0.0
25/07:00pm 28.5 27.9 23.4 74 3.5 SE 32 35 17 19 1008.3 1008.2 0.0
25/06:30pm 28.6 27.5 22.9 71 3.9 SE 33 39 18 21 1008.1 1008.0 0.0
25/06:00pm 28.9 27.7 22.7 69 4.2 SE 33 39 18 21 1007.9 1007.8 0.0
25/05:30pm 29.3 28.2 22.9 68 4.4 SE 33 37 18 20 1007.8 1007.7 0.0
25/05:00pm 29.6 28.8 23.0 67 4.5 SE 32 35 17 19 1007.5 1007.4 0.0
25/04:30pm 30.0 29.6 23.0 66 4.8 SE 30 35 16 19 1007.3 1007.2 0.0
25/04:00pm 30.1 29.3 23.0 65 4.9 SE 32 35 17 19 1007.5 1007.4 0.0
25/03:30pm 30.5 29.6 22.9 64 5.2 SE 32 37 17 20 1007.5 1007.4 0.0
25/03:00pm 30.8 30.5 23.3 64 5.2 SE 30 33 16 18 1007.7 1007.6 0.0
25/02:30pm 30.9 30.1 23.1 63 5.4 SE 32 35 17 19 1007.9 1007.8 0.0
25/02:00pm 30.7 30.3 24.1 68 4.6 SE 33 39 18 21 1008.1 1008.0 0.0
25/01:30pm 31.1 31.2 24.5 68 4.6 SE 32 37 17 20 1008.5 1008.4 0.0
25/01:00pm 31.0 31.3 24.3 67 4.7 SE 30 33 16 18 1008.8 1008.7 0.0
25/12:30pm 31.3 31.6 24.9 69 4.5 SE 32 33 17 18 1009.2 1009.1 0.0
25/12:00pm 31.1 31.5 24.5 68 4.6 SE 30 35 16 19 1009.8 1009.7 0.0
25/11:30am 30.9 31.3 24.5 68 4.5 SE 30 35 16 19 1010.0 1009.9 0.0
25/11:00am 31.2 32.0 25.1 70 4.3 SE 30 35 16 19 1010.2 1010.1 0.0
25/10:30am 30.6 30.7 24.5 70 4.3 ESE 32 35 17 19 1010.3 1010.2 0.0
25/10:00am 30.6 30.7 24.5 70 4.3 SE 32 37 17 20 1010.4 1010.3 0.0
25/09:30am 30.3 30.6 24.9 73 3.8 SE 32 37 17 20 1010.6 1010.5 0.0
25/09:00am 29.5 29.8 24.3 73 3.6 E 30 41 16 22 1010.6 1010.5 0.8
25/08:30am 28.9 28.8 24.3 76 3.2 SE 32 39 17 21 1010.7 1010.6 0.6
25/08:00am 27.9 28.5 24.7 83 2.2 SE 30 39 16 21 1010.6 1010.5 0.6
25/07:30am 29.5 29.3 24.0 72 3.8 ESE 32 37 17 20 1010.5 1010.4 0.2
25/07:00am 29.1 29.3 24.7 77 3.1 ESE 32 35 17 19 1010.0 1009.9 0.2
25/06:30am 28.5 28.4 24.2 77 3.0 ESE 32 35 17 19 1009.7 1009.6 0.2
25/06:00am 28.2 27.9 23.9 77 3.0 SE 32 37 17 20 1009.3 1009.2 0.2
25/05:30am 28.1 27.7 23.7 77 3.0 ESE 32 35 17 19 1009.1 1009.0 0.2
25/05:00am 28.1 27.9 24.1 79 2.8 SE 32 35 17 19 1008.9 1008.8 0.2
25/04:30am 27.7 27.2 23.8 79 2.7 ESE 33 39 18 21 1008.8 1008.7 0.2
25/04:11am 27.8 28.5 24.3 81 2.4 ESE 28 46 15 25 1008.8 1008.7 0.2
25/04:00am 28.2 28.8 24.2 79 2.8 ESE 28 32 15 17 1008.8 1008.7 0.2
25/03:30am 28.2 27.4 23.1 74 3.5 ESE 32 35 17 19 1008.8 1008.7 0.2
25/03:00am 28.1 28.5 23.7 77 3.0 SE 28 33 15 18 1008.6 1008.5 0.2
25/02:30am 28.0 28.8 24.4 81 2.5 SE 28 32 15 17 1008.8 1008.7 0.2
25/02:00am 27.9 28.0 24.0 79 2.7 SE 30 33 16 18 1009.0 1008.9 0.2
25/01:30am 28.0 28.3 23.6 77 3.0 SE 28 32 15 17 1009.4 1009.3 0.2
25/01:00am 27.8 27.9 24.0 80 2.6 SE 30 32 16 17 1009.7 1009.6 0.2
25/12:30am 28.0 29.6 23.9 78 2.8 SE 22 28 12 15 1010.2 1010.1 0.0
25/12:00am 28.4 29.4 24.1 77 3.0 SE 26 30 14 16 1010.4 1010.3 0.0
 
Date/Time
EST
Temp
°C
App
Temp
°C
Dew
Point
°C
Rel
Hum
%
Delta-T
°C
Wind Press
QNH
hPa
Press
MSL
hPa
Rain since
9am
mm
Dir  Spd
km/h
Gust
km/h
Spd
kts
Gust
kts
24/11:30pm 28.5 29.5 24.2 77 3.0 SE 26 32 14 17 1010.7 1010.6 0.0
24/11:00pm 28.5 29.6 24.3 78 2.9 ESE 26 30 14 16 1011.0 1010.9 0.0
24/10:30pm 28.5 29.4 23.9 76 3.2 ESE 26 30 14 16 1011.1 1011.0 0.0
24/10:00pm 28.6 29.0 23.7 75 3.4 ESE 28 32 15 17 1011.1 1011.0 0.0
24/09:30pm 28.6 28.5 23.5 74 3.5 ESE 30 33 16 18 1011.0 1010.9 0.0
24/09:00pm 28.6 28.7 24.0 76 3.2 ESE 30 35 16 19 1010.9 1010.8 0.0
24/08:30pm 28.4 29.6 24.5 79 2.7 ESE 26 30 14 16 1010.9 1010.8 0.0
24/08:00pm 28.6 29.3 24.3 77 3.0 SE 28 33 15 18 1010.6 1010.5 0.0
24/07:30pm 28.6 29.6 24.1 76 3.1 SE 26 30 14 16 1010.4 1010.3 0.0
24/07:00pm 28.6 29.9 24.1 76 3.1 SE 24 30 13 16 1010.3 1010.2 0.0
24/06:30pm 28.7 29.5 23.8 75 3.4 ESE 26 32 14 17 1010.1 1010.0 0.0
24/06:00pm 28.9 30.2 24.0 75 3.4 ESE 24 28 13 15 1009.9 1009.8 0.0
24/05:30pm 29.3 30.6 24.1 73 3.6 ESE 24 28 13 15 1009.5 1009.4 0.0
24/05:00pm 29.7 30.8 23.6 69 4.2 ESE 24 28 13 15 1009.4 1009.3 0.0
24/04:30pm 30.3 31.5 23.8 68 4.5 ESE 24 28 13 15 1009.4 1009.3 0.0
24/04:00pm 30.3 31.4 24.3 70 4.2 ESE 26 30 14 16 1009.3 1009.2 0.0
24/03:30pm 30.6 31.8 24.5 70 4.3 ESE 26 32 14 17 1009.1 1009.0 0.0
24/03:00pm 31.0 32.8 25.5 72 3.9 ESE 26 30 14 16 1009.2 1009.1 0.0
24/02:30pm 30.9 32.9 25.2 71 4.0 ESE 24 28 13 15 1009.3 1009.2 0.0
24/02:00pm 30.7 32.6 25.6 74 3.6 ESE 26 30 14 16 1009.6 1009.5 0.0
24/01:30pm 30.4 33.2 25.2 74 3.7 ESE 20 26 11 14 1010.1 1010.0 0.0
24/01:00pm 31.3 34.6 25.1 69 4.4 ESE 17 20 9 11 1010.5 1010.4 0.0
24/12:30pm 31.3 34.0 25.1 69 4.4 ESE 20 22 11 12 1011.0 1010.9 0.0
24/12:00pm 31.3 34.5 25.5 71 4.1 ESE 19 22 10 12 1011.4 1011.3 0.0
24/11:30am 31.0 34.0 25.3 71 4.0 ESE 19 22 10 12 1011.9 1011.8 0.0
24/11:00am 30.8 33.8 25.3 72 3.9 ESE 19 20 10 11 1012.1 1012.0 0.0
24/10:30am 31.1 34.1 25.3 71 4.1 ESE 19 24 10 13 1012.3 1012.2 0.0
24/10:00am 30.7 33.5 25.2 72 3.9 ESE 20 24 11 13 1012.4 1012.3 0.0
24/09:30am 30.3 32.4 24.7 72 3.9 ESE 22 26 12 14 1012.3 1012.2 0.0
24/09:00am 30.4 32.7 25.0 73 3.8 ESE 22 26 12 14 1012.3 1012.2 4.6
24/08:30am 30.1 32.4 25.1 74 3.5 ESE 22 26 12 14 1012.3 1012.2 4.6
24/08:00am 29.7 31.5 24.9 75 3.4 ESE 24 28 13 15 1012.2 1012.1 4.6
24/07:30am 28.7 31.4 25.1 81 2.5 ESE 20 24 11 13 1011.8 1011.7 4.6
24/07:00am 29.0 30.7 24.6 77 3.1 ESE 24 26 13 14 1011.4 1011.3 4.6
24/06:30am 28.5 30.5 24.6 79 2.7 ESE 22 26 12 14 1011.1 1011.0 4.6
24/06:00am 28.3 30.0 24.6 80 2.6 ESE 24 28 13 15 1010.9 1010.8 4.6
24/05:30am 28.3 30.1 24.9 82 2.4 ESE 24 28 13 15 1010.7 1010.6 4.6
24/05:00am 28.2 30.0 24.8 82 2.4 E 24 30 13 16 1010.6 1010.5 4.6
24/04:30am 28.3 28.9 24.1 78 2.9 E 28 32 15 17 1010.6 1010.5 4.6
24/04:00am 28.3 29.2 24.6 80 2.6 E 28 32 15 17 1010.4 1010.3 4.6
24/03:30am 28.3 29.2 24.6 80 2.6 E 28 32 15 17 1010.4 1010.3 4.6
24/03:00am 28.3 29.0 24.3 79 2.8 E 28 33 15 18 1010.6 1010.5 4.6
24/02:30am 28.3 29.9 25.2 83 2.2 E 26 30 14 16 1010.6 1010.5 4.6
24/02:00am 28.2 29.8 25.1 83 2.2 E 26 30 14 16 1010.9 1010.8 4.6
24/01:30am 28.1 30.9 25.3 85 2.0 E 20 24 11 13 1011.3 1011.2 4.6
24/01:00am 28.1 30.4 25.1 84 2.1 E 22 26 12 14 1011.8 1011.7 4.6
24/12:30am 28.1 30.4 25.1 84 2.1 E 22 26 12 14 1012.0 1011.9 4.6
24/12:00am 27.9 29.9 24.6 82 2.3 E 22 24 12 13 1012.4 1012.3 4.6
 
Date/Time
EST
Temp
°C
App
Temp
°C
Dew
Point
°C
Rel
Hum
%
Delta-T
°C
Wind Press
QNH
hPa
Press
MSL
hPa
Rain since
9am
mm
Dir  Spd
km/h
Gust
km/h
Spd
kts
Gust
kts
23/11:30pm 28.0 30.7 25.1 84 2.0 E 20 24 11 13 1012.6 1012.5 4.6
23/11:00pm 28.0 30.3 25.0 84 2.1 E 22 26 12 14 1012.9 1012.8 4.6
23/10:30pm 27.8 29.5 24.6 83 2.2 E 24 28 13 15 1012.8 1012.7 4.6
23/10:00pm 27.7 30.0 25.6 88 1.5 E 24 32 13 17 1012.9 1012.8 4.6
23/09:37pm 27.3 30.3 25.6 90 1.2 ENE 20 43 11 23 1012.6 1012.5 4.6
23/09:30pm 27.3 32.2 25.2 88 1.5 ENE 9 15 5 8 1012.5 1012.4 4.6
23/09:00pm 27.7 28.7 24.7 84 2.1 E 28 35 15 19 1012.2 1012.1 0.0
23/08:30pm 28.9 30.4 24.9 79 2.8 ESE 26 30 14 16 1012.1 1012.0 0.0
23/08:00pm 29.0 31.0 25.2 80 2.7 ESE 24 28 13 15 1011.8 1011.7 0.0
23/07:30pm 28.9 30.4 24.4 76 3.1 ESE 24 28 13 15 1011.5 1011.4 0.0
23/07:00pm 28.9 31.1 24.9 79 2.8 E 22 26 12 14 1011.3 1011.2 0.0
23/06:30pm 29.0 30.8 24.9 78 2.9 ESE 24 28 13 15 1011.0 1010.9 0.0
23/06:00pm 29.2 30.8 24.5 76 3.3 ESE 24 30 13 16 1010.7 1010.6 0.0
23/05:30pm 29.6 31.6 24.6 74 3.5 ESE 22 26 12 14 1010.3 1010.2 0.0
23/05:00pm 30.1 32.2 24.1 70 4.2 ESE 20 24 11 13 1010.2 1010.1 0.0
23/04:30pm 30.1 32.6 24.7 73 3.8 ESE 20 22 11 12 1009.9 1009.8 0.0
23/04:00pm 30.5 32.7 24.3 69 4.3 E 20 24 11 13 1009.6 1009.5 0.0

Other Formats:

Comma delimited format used in spreadsheet applications
http://www.bom.gov.au/fwo/IDQ60801/IDQ60801.94299.axf

JavaScript Object Notation format (JSON) in row-major order
http://www.bom.gov.au/fwo/IDQ60801/IDQ60801.94299.json